Time;durP1;ratioP1;P1;durP2;ratioP2;P2;SDS_P1;SDS_P2;PMS_P1;PMS_P2;Temp;Humidity;BMP_temperature;BMP_pressure;BME280_temperature;BME280_humidity;BME280_pressure;Samples;Min_cycle;Max_cycle;Signal;HPM_P1;HPM_P2
2022/03/29 00:00:13;;;;;;;21.10;8.05;;;;;;;;;;4933142;28;20445;-65
2022/03/29 00:02:41;;;;;;;29.77;9.90;;;;;;;;;;4932503;28;20345;-66
2022/03/29 00:05:07;;;;;;;25.17;9.50;;;;;;;;;;4932036;28;20442;-65
2022/03/29 00:07:34;;;;;;;22.50;9.40;;;;;;;;;;4931583;28;20113;-65
2022/03/29 00:10:01;;;;;;;20.45;8.68;;;;;;;;;;4932305;28;20381;-65
2022/03/29 00:12:27;;;;;;;21.65;9.18;;;;;;;;;;4931525;28;20449;-65
2022/03/29 00:14:52;;;;;;;21.02;9.23;;;;;;;;;;4931746;28;20370;-65
2022/03/29 00:17:17;;;;;;;21.25;9.57;;;;;;;;;;4931379;28;20457;-65
2022/03/29 00:19:43;;;;;;;22.65;9.57;;;;;;;;;;4931930;28;20434;-65
2022/03/29 00:22:08;;;;;;;22.95;9.40;;;;;;;;;;4931482;28;20038;-65
2022/03/29 00:24:33;;;;;;;23.17;9.52;;;;;;;;;;4931506;28;20521;-65
2022/03/29 00:26:59;;;;;;;23.58;9.80;;;;;;;;;;4932330;28;20361;-65
2022/03/29 00:29:24;;;;;;;24.92;9.98;;;;;;;;;;4933429;28;20524;-64
2022/03/29 00:31:49;;;;;;;24.77;9.20;;;;;;;;;;4931144;28;20389;-64
2022/03/29 00:34:15;;;;;;;23.80;9.45;;;;;;;;;;4932333;28;20430;-65
2022/03/29 00:36:40;;;;;;;23.20;10.63;;;;;;;;;;4932316;28;20315;-66
2022/03/29 00:39:05;;;;;;;22.35;9.15;;;;;;;;;;4931346;28;20097;-65
2022/03/29 00:41:31;;;;;;;25.60;8.80;;;;;;;;;;4930993;28;20434;-65
2022/03/29 00:43:57;;;;;;;20.73;9.20;;;;;;;;;;4930942;28;20341;-65
2022/03/29 00:46:23;;;;;;;22.42;10.88;;;;;;;;;;4931066;28;20350;-65
2022/03/29 00:48:48;;;;;;;25.98;10.52;;;;;;;;;;4931141;28;20393;-65
2022/03/29 00:51:13;;;;;;;23.33;8.82;;;;;;;;;;4930912;28;20492;-65
2022/03/29 00:53:39;;;;;;;25.38;9.55;;;;;;;;;;4932471;28;20385;-65
2022/03/29 00:56:04;;;;;;;21.65;9.15;;;;;;;;;;4945998;28;20062;-65
2022/03/29 00:58:31;;;;;;;28.38;9.35;;;;;;;;;;4931758;28;20326;-65
2022/03/29 01:00:58;;;;;;;25.27;9.75;;;;;;;;;;4934537;28;20442;-65
2022/03/29 01:03:24;;;;;;;25.33;10.15;;;;;;;;;;4926895;28;20468;-65
2022/03/29 01:05:49;;;;;;;20.00;8.63;;;;;;;;;;4951129;28;20422;-64
2022/03/29 01:08:15;;;;;;;20.40;9.85;;;;;;;;;;4950168;28;20349;-65
2022/03/29 01:10:43;;;;;;;23.63;9.63;;;;;;;;;;4950255;28;20367;-65
2022/03/29 01:13:09;;;;;;;24.05;9.50;;;;;;;;;;4949867;28;20421;-65
2022/03/29 01:15:36;;;;;;;21.52;8.00;;;;;;;;;;4950424;28;20323;-65
2022/03/29 01:18:01;;;;;;;22.77;8.30;;;;;;;;;;4949960;28;20514;-65
2022/03/29 01:20:30;;;;;;;29.77;10.40;;;;;;;;;;4951210;28;20428;-65
2022/03/29 01:22:56;;;;;;;22.75;9.45;;;;;;;;;;4950205;28;20505;-64
2022/03/29 01:25:28;;;;;;;26.35;9.15;;;;;;;;;;4950197;28;20503;-65
2022/03/29 01:27:54;;;;;;;22.83;9.73;;;;;;;;;;4948283;28;20057;-65
2022/03/29 01:30:21;;;;;;;28.10;10.88;;;;;;;;;;4950270;28;20437;-65
2022/03/29 01:32:48;;;;;;;20.63;9.63;;;;;;;;;;4950354;28;20344;-65
2022/03/29 01:35:17;;;;;;;25.60;10.50;;;;;;;;;;4953388;28;20365;-65
2022/03/29 01:37:42;;;;;;;17.77;8.43;;;;;;;;;;4954001;28;20408;-65
2022/03/29 01:40:12;;;;;;;19.58;9.77;;;;;;;;;;4953926;28;20766;-65
2022/03/29 01:42:41;;;;;;;20.17;9.38;;;;;;;;;;4953583;28;20455;-65
2022/03/29 01:45:07;;;;;;;20.00;8.70;;;;;;;;;;4954920;28;20398;-65
2022/03/29 01:47:32;;;;;;;22.50;9.63;;;;;;;;;;4954193;28;20417;-65
2022/03/29 01:49:58;;;;;;;22.70;9.32;;;;;;;;;;4953507;28;20344;-66
2022/03/29 01:52:23;;;;;;;33.72;11.50;;;;;;;;;;4953423;28;20433;-65
2022/03/29 01:54:48;;;;;;;22.42;9.52;;;;;;;;;;4953237;28;20390;-65
2022/03/29 01:57:14;;;;;;;25.83;9.70;;;;;;;;;;4953622;28;20345;-66
2022/03/29 02:02:23;;;;;;;23.70;9.38;;;;;;;;;;4955517;28;20329;-65
2022/03/29 02:04:49;;;;;;;23.10;9.63;;;;;;;;;;4953937;28;20353;-65
2022/03/29 02:07:16;;;;;;;18.55;8.65;;;;;;;;;;4953629;28;20022;-65
2022/03/29 02:09:42;;;;;;;20.80;9.93;;;;;;;;;;4953107;28;20021;-65
2022/03/29 02:12:08;;;;;;;18.70;9.30;;;;;;;;;;4953900;28;20429;-65
2022/03/29 02:14:34;;;;;;;23.95;8.98;;;;;;;;;;4953613;28;20372;-65
2022/03/29 02:17:00;;;;;;;19.65;9.00;;;;;;;;;;4953523;28;20388;-65
2022/03/29 02:19:25;;;;;;;23.85;9.00;;;;;;;;;;4953358;28;20472;-66
2022/03/29 02:21:51;;;;;;;23.52;8.80;;;;;;;;;;4953450;28;20333;-65
2022/03/29 02:24:16;;;;;;;21.13;9.52;;;;;;;;;;4952590;28;20444;-65
2022/03/29 02:26:41;;;;;;;22.52;9.77;;;;;;;;;;4952100;28;20425;-68
2022/03/29 02:29:07;;;;;;;23.10;8.95;;;;;;;;;;4953275;28;20410;-65
2022/03/29 02:31:32;;;;;;;20.23;9.23;;;;;;;;;;4952681;28;20448;-66
2022/03/29 02:33:57;;;;;;;27.23;10.27;;;;;;;;;;4953305;28;20477;-65
2022/03/29 02:36:23;;;;;;;25.40;9.43;;;;;;;;;;4952601;28;20472;-65
2022/03/29 02:38:48;;;;;;;21.23;9.15;;;;;;;;;;4953918;28;20532;-65
2022/03/29 02:41:13;;;;;;;19.73;8.18;;;;;;;;;;4952298;28;20476;-65
2022/03/29 02:43:38;;;;;;;24.15;9.13;;;;;;;;;;4952718;28;20461;-65
2022/03/29 02:46:04;;;;;;;20.95;8.82;;;;;;;;;;4952163;28;20416;-65
2022/03/29 02:48:30;;;;;;;21.77;9.13;;;;;;;;;;4952977;28;20418;-65
2022/03/29 02:50:56;;;;;;;25.13;9.93;;;;;;;;;;4952984;28;20497;-65
2022/03/29 02:53:22;;;;;;;22.38;10.07;;;;;;;;;;4952566;28;20451;-66
2022/03/29 02:55:47;;;;;;;19.75;9.38;;;;;;;;;;4951949;28;20295;-65
2022/03/29 02:58:12;;;;;;;23.13;8.95;;;;;;;;;;4953220;28;20347;-66
2022/03/29 03:00:37;;;;;;;18.60;8.95;;;;;;;;;;4952231;28;20460;-65
2022/03/29 03:03:03;;;;;;;22.45;9.40;;;;;;;;;;4953130;28;20302;-65
2022/03/29 03:05:29;;;;;;;23.48;9.75;;;;;;;;;;4952443;28;20530;-65
2022/03/29 03:07:54;;;;;;;21.38;7.90;;;;;;;;;;4952841;28;20480;-66
2022/03/29 03:10:20;;;;;;;24.95;9.98;;;;;;;;;;4952275;28;20492;-65
2022/03/29 03:12:48;;;;;;;25.85;10.63;;;;;;;;;;4950911;28;20401;-65
2022/03/29 03:15:15;;;;;;;20.20;9.57;;;;;;;;;;4954759;28;20295;-66
2022/03/29 03:17:40;;;;;;;23.02;9.38;;;;;;;;;;4953456;28;20337;-65
2022/03/29 03:20:07;;;;;;;21.85;9.70;;;;;;;;;;4952292;28;20025;-65
2022/03/29 03:22:34;;;;;;;21.10;9.23;;;;;;;;;;4952538;28;20369;-65
2022/03/29 03:24:59;;;;;;;23.17;9.95;;;;;;;;;;4950499;28;20453;-65
2022/03/29 03:27:24;;;;;;;20.98;9.35;;;;;;;;;;4951921;28;20457;-66
2022/03/29 03:29:50;;;;;;;20.40;10.40;;;;;;;;;;4952696;28;20031;-65
2022/03/29 03:32:15;;;;;;;22.75;9.77;;;;;;;;;;4951855;28;20457;-65
2022/03/29 03:34:41;;;;;;;19.75;9.82;;;;;;;;;;4952002;28;20026;-65
2022/03/29 03:37:07;;;;;;;23.30;8.77;;;;;;;;;;4952675;28;20038;-65
2022/03/29 03:39:42;;;;;;;21.90;9.57;;;;;;;;;;4564989;28;10001179;-65
2022/03/29 03:42:09;;;;;;;17.75;9.07;;;;;;;;;;2860410;28;10002008;-65
2022/03/29 03:44:36;;;;;;;29.98;9.88;;;;;;;;;;4946353;28;20022;-66
2022/03/29 03:47:02;;;;;;;17.40;9.13;;;;;;;;;;4951338;28;20338;-66
2022/03/29 03:49:27;;;;;;;24.90;9.50;;;;;;;;;;4951933;28;20138;-67
2022/03/29 03:51:52;;;;;;;18.50;8.63;;;;;;;;;;4951376;28;20337;-65
2022/03/29 03:54:18;;;;;;;23.98;9.35;;;;;;;;;;4951656;28;20393;-65
2022/03/29 03:56:43;;;;;;;22.00;9.07;;;;;;;;;;4950854;28;20323;-65
2022/03/29 03:59:08;;;;;;;21.90;9.70;;;;;;;;;;4951265;28;20365;-65
2022/03/29 04:01:34;;;;;;;20.30;8.30;;;;;;;;;;4952114;28;20504;-66
2022/03/29 04:04:00;;;;;;;19.70;8.55;;;;;;;;;;4951888;28;20571;-65
2022/03/29 04:06:25;;;;;;;25.10;8.73;;;;;;;;;;4951541;28;20030;-65
2022/03/29 04:08:51;;;;;;;16.50;8.30;;;;;;;;;;4951630;28;20425;-66
2022/03/29 04:11:16;;;;;;;18.88;8.88;;;;;;;;;;4951351;28;20509;-65
2022/03/29 04:13:41;;;;;;;18.88;8.57;;;;;;;;;;4951283;28;20658;-65
2022/03/29 04:16:07;;;;;;;22.20;8.93;;;;;;;;;;4950791;28;20370;-65
2022/03/29 04:18:32;;;;;;;19.77;8.90;;;;;;;;;;4952878;28;20496;-65
2022/03/29 04:20:57;;;;;;;19.05;8.60;;;;;;;;;;4950919;28;20338;-66
2022/03/29 04:23:23;;;;;;;23.23;9.48;;;;;;;;;;4951190;28;20331;-65
2022/03/29 04:25:48;;;;;;;20.13;9.25;;;;;;;;;;4950633;28;20508;-65
2022/03/29 04:28:13;;;;;;;16.77;8.88;;;;;;;;;;4951790;28;20030;-65
2022/03/29 04:30:39;;;;;;;25.35;9.77;;;;;;;;;;4952069;28;20042;-65
2022/03/29 04:33:06;;;;;;;20.38;9.60;;;;;;;;;;4952088;28;20354;-65
2022/03/29 04:35:31;;;;;;;21.15;9.13;;;;;;;;;;4950731;28;20511;-65
2022/03/29 04:37:56;;;;;;;26.13;9.98;;;;;;;;;;4951423;28;20441;-66
2022/03/29 04:40:22;;;;;;;22.63;9.45;;;;;;;;;;4950574;28;20655;-65
2022/03/29 04:42:48;;;;;;;20.17;9.80;;;;;;;;;;4950338;28;20492;-65
2022/03/29 04:45:17;;;;;;;23.27;9.30;;;;;;;;;;4950919;28;20389;-65
2022/03/29 04:47:44;;;;;;;25.92;10.35;;;;;;;;;;4950057;28;20333;-65
2022/03/29 04:50:11;;;;;;;25.23;10.10;;;;;;;;;;4950128;28;20033;-65
2022/03/29 04:52:37;;;;;;;19.70;9.10;;;;;;;;;;4951217;28;20022;-65
2022/03/29 04:55:04;;;;;;;21.10;9.77;;;;;;;;;;4950738;28;20556;-65
2022/03/29 04:57:30;;;;;;;19.25;9.30;;;;;;;;;;4950342;28;20414;-65
2022/03/29 04:59:55;;;;;;;25.08;10.43;;;;;;;;;;4950007;28;20034;-65
2022/03/29 05:02:21;;;;;;;20.17;9.50;;;;;;;;;;4949680;28;20344;-66
2022/03/29 05:04:46;;;;;;;19.90;9.18;;;;;;;;;;4951406;28;20436;-66
2022/03/29 05:07:11;;;;;;;20.23;9.25;;;;;;;;;;4949965;28;20511;-65
2022/03/29 05:09:37;;;;;;;20.83;9.68;;;;;;;;;;4949382;28;20348;-65
2022/03/29 05:12:02;;;;;;;19.05;8.80;;;;;;;;;;4949746;28;20429;-65
2022/03/29 05:14:28;;;;;;;22.45;9.93;;;;;;;;;;4949482;28;20543;-65
2022/03/29 05:16:53;;;;;;;23.23;9.07;;;;;;;;;;4949741;28;20511;-65
2022/03/29 05:19:19;;;;;;;21.50;9.23;;;;;;;;;;4950081;28;20043;-65
2022/03/29 05:21:44;;;;;;;24.23;10.35;;;;;;;;;;4949751;28;20429;-65
2022/03/29 05:24:11;;;;;;;18.98;10.15;;;;;;;;;;4950599;28;20417;-65
2022/03/29 05:26:36;;;;;;;25.55;10.50;;;;;;;;;;4951544;28;20050;-65
2022/03/29 05:29:04;;;;;;;25.20;9.95;;;;;;;;;;4949616;28;20513;-65
2022/03/29 05:31:30;;;;;;;20.85;9.40;;;;;;;;;;4949669;28;20433;-65
2022/03/29 05:33:55;;;;;;;22.70;9.63;;;;;;;;;;4949224;28;20557;-65
2022/03/29 05:36:20;;;;;;;26.65;10.43;;;;;;;;;;4949605;28;20448;-65
2022/03/29 05:38:51;;;;;;;19.45;8.90;;;;;;;;;;4949566;28;20488;-65
2022/03/29 05:41:20;;;;;;;24.02;9.07;;;;;;;;;;4949412;28;20034;-65
2022/03/29 05:43:48;;;;;;;20.90;9.63;;;;;;;;;;4948977;28;20331;-67
2022/03/29 05:48:59;;;;;;;22.15;9.02;;;;;;;;;;4949302;28;20544;-65
2022/03/29 05:51:26;;;;;;;25.38;10.75;;;;;;;;;;4949622;28;20456;-65
2022/03/29 05:53:56;;;;;;;23.45;10.13;;;;;;;;;;4949285;28;20489;-65
2022/03/29 05:56:22;;;;;;;19.92;9.75;;;;;;;;;;4949638;28;20053;-65
2022/03/29 05:58:47;;;;;;;24.92;10.63;;;;;;;;;;4950168;28;20524;-65
2022/03/29 06:01:13;;;;;;;25.83;10.82;;;;;;;;;;4949271;28;20369;-65
2022/03/29 06:03:39;;;;;;;25.17;9.95;;;;;;;;;;4950353;28;20037;-65
2022/03/29 06:06:04;;;;;;;17.88;9.30;;;;;;;;;;4949511;28;20469;-65
2022/03/29 06:08:31;;;;;;;22.20;9.27;;;;;;;;;;4948940;28;20452;-65
2022/03/29 06:10:56;;;;;;;23.65;10.38;;;;;;;;;;4947853;28;20429;-65
2022/03/29 06:13:21;;;;;;;29.83;11.40;;;;;;;;;;4950240;28;20430;-65
2022/03/29 06:15:47;;;;;;;23.50;9.98;;;;;;;;;;4949103;28;20319;-65
2022/03/29 06:18:12;;;;;;;28.45;11.85;;;;;;;;;;4950169;28;20512;-65
2022/03/29 06:20:38;;;;;;;25.63;11.55;;;;;;;;;;4950459;28;20120;-65
2022/03/29 06:23:03;;;;;;;22.85;10.43;;;;;;;;;;4952869;28;20057;-65
2022/03/29 06:25:28;;;;;;;24.63;11.43;;;;;;;;;;4952725;28;20380;-65
2022/03/29 06:27:54;;;;;;;25.52;11.38;;;;;;;;;;4952973;28;20437;-65
2022/03/29 06:30:20;;;;;;;23.10;10.35;;;;;;;;;;4952481;28;20512;-64
2022/03/29 06:32:51;;;;;;;21.63;9.65;;;;;;;;;;4952707;28;20389;-65
2022/03/29 06:35:24;;;;;;;22.45;9.60;;;;;;;;;;4953370;28;20356;-65
2022/03/29 06:37:52;;;;;;;17.98;8.27;;;;;;;;;;4952265;28;20405;-65
2022/03/29 06:40:17;;;;;;;19.38;8.70;;;;;;;;;;4952543;28;20342;-65
2022/03/29 06:42:43;;;;;;;18.73;9.00;;;;;;;;;;4951670;28;20446;-65
2022/03/29 06:45:09;;;;;;;19.40;8.98;;;;;;;;;;4953071;28;20033;-65
2022/03/29 06:47:34;;;;;;;21.38;8.60;;;;;;;;;;4952690;28;20338;-65
2022/03/29 06:50:01;;;;;;;18.08;8.55;;;;;;;;;;4952411;28;20315;-65
2022/03/29 06:52:28;;;;;;;22.70;8.65;;;;;;;;;;4950928;28;20434;-65
2022/03/29 06:54:53;;;;;;;21.33;9.18;;;;;;;;;;4952500;28;20381;-65
2022/03/29 06:57:18;;;;;;;18.33;9.68;;;;;;;;;;4951805;28;20084;-65
2022/03/29 06:59:44;;;;;;;20.38;9.57;;;;;;;;;;4952290;28;20030;-66
2022/03/29 07:02:09;;;;;;;19.58;9.18;;;;;;;;;;4952676;28;20417;-65
2022/03/29 07:04:34;;;;;;;24.13;10.18;;;;;;;;;;4953351;28;20144;-65
2022/03/29 07:07:00;;;;;;;17.45;8.43;;;;;;;;;;4951873;28;20030;-65
2022/03/29 07:12:09;;;;;;;21.65;9.38;;;;;;;;;;4953444;28;20116;-65
2022/03/29 07:14:35;;;;;;;22.60;8.93;;;;;;;;;;4952038;28;20417;-66
2022/03/29 07:17:00;;;;;;;19.73;8.70;;;;;;;;;;4952079;28;20512;-65
2022/03/29 07:19:27;;;;;;;23.90;9.35;;;;;;;;;;4952333;28;20053;-65
2022/03/29 07:21:53;;;;;;;23.48;10.23;;;;;;;;;;4951782;28;20414;-65
2022/03/29 07:24:18;;;;;;;18.58;9.30;;;;;;;;;;4952659;28;20428;-65
2022/03/29 07:26:44;;;;;;;21.45;10.05;;;;;;;;;;4952422;28;20176;-65
2022/03/29 07:29:09;;;;;;;19.65;9.48;;;;;;;;;;4951100;28;20473;-65
2022/03/29 07:31:35;;;;;;;16.88;7.72;;;;;;;;;;4950720;28;20392;-65
2022/03/29 07:34:00;;;;;;;21.98;9.45;;;;;;;;;;4951006;28;20414;-65
2022/03/29 07:36:25;;;;;;;20.23;9.45;;;;;;;;;;4951515;28;20511;-65
2022/03/29 07:38:51;;;;;;;22.23;8.98;;;;;;;;;;4952247;28;20352;-65
2022/03/29 07:41:17;;;;;;;22.80;9.70;;;;;;;;;;4951329;28;20483;-65
2022/03/29 07:43:42;;;;;;;21.27;9.07;;;;;;;;;;4950889;28;20054;-65
2022/03/29 07:46:07;;;;;;;20.27;8.98;;;;;;;;;;4951248;28;20357;-65
2022/03/29 07:48:33;;;;;;;17.23;8.52;;;;;;;;;;4951249;28;20072;-65
2022/03/29 07:50:58;;;;;;;20.75;9.70;;;;;;;;;;4951156;28;20396;-65
2022/03/29 07:53:25;;;;;;;17.40;8.88;;;;;;;;;;4951161;28;20092;-66
2022/03/29 07:55:51;;;;;;;15.30;7.80;;;;;;;;;;4950745;28;20357;-65
2022/03/29 07:58:17;;;;;;;19.60;8.73;;;;;;;;;;4951160;28;20034;-65
2022/03/29 08:00:42;;;;;;;21.45;8.15;;;;;;;;;;4950668;28;20303;-66
2022/03/29 08:03:15;;;;;;;19.70;8.27;;;;;;;;;;4951125;28;20096;-65
2022/03/29 08:05:41;;;;;;;14.55;7.00;;;;;;;;;;4951205;28;20449;-66
2022/03/29 08:08:07;;;;;;;18.25;7.55;;;;;;;;;;4950991;28;20080;-65
2022/03/29 08:10:33;;;;;;;14.13;7.38;;;;;;;;;;4952232;28;20436;-65
2022/03/29 08:13:00;;;;;;;16.35;6.82;;;;;;;;;;4950824;28;20475;-65
2022/03/29 08:15:26;;;;;;;18.45;7.90;;;;;;;;;;4950886;28;20437;-65
2022/03/29 08:17:51;;;;;;;16.30;7.63;;;;;;;;;;4952579;28;20029;-65
2022/03/29 08:20:17;;;;;;;16.77;7.45;;;;;;;;;;4951177;28;20476;-64
2022/03/29 08:22:47;;;;;;;20.67;8.57;;;;;;;;;;4951358;28;20310;-65
2022/03/29 08:25:16;;;;;;;17.33;7.45;;;;;;;;;;4950609;28;20342;-65
2022/03/29 08:27:42;;;;;;;18.00;7.15;;;;;;;;;;4950522;28;20326;-65
2022/03/29 08:30:09;;;;;;;15.77;7.22;;;;;;;;;;4950513;28;20365;-65
2022/03/29 08:32:35;;;;;;;18.65;7.75;;;;;;;;;;4950766;28;20414;-65
2022/03/29 08:35:02;;;;;;;14.38;6.72;;;;;;;;;;4950427;28;20433;-65
2022/03/29 08:37:28;;;;;;;17.77;7.18;;;;;;;;;;4950534;28;20384;-65
2022/03/29 08:39:53;;;;;;;14.40;6.93;;;;;;;;;;4948732;28;20388;-65
2022/03/29 08:42:19;;;;;;;11.50;6.15;;;;;;;;;;4950605;28;20400;-65
2022/03/29 08:44:46;;;;;;;14.98;7.35;;;;;;;;;;4949617;28;20457;-65
2022/03/29 08:47:12;;;;;;;18.02;6.53;;;;;;;;;;4950262;28;20088;-65
2022/03/29 08:49:38;;;;;;;16.33;7.07;;;;;;;;;;4949686;28;20388;-65
2022/03/29 08:52:06;;;;;;;12.85;6.65;;;;;;;;;;4950037;28;20369;-65
2022/03/29 08:54:33;;;;;;;11.73;6.40;;;;;;;;;;4950228;28;20097;-65
2022/03/29 08:56:59;;;;;;;11.93;6.20;;;;;;;;;;4949841;28;20319;-65
2022/03/29 08:59:26;;;;;;;14.75;6.82;;;;;;;;;;4950195;28;20449;-65
2022/03/29 09:01:52;;;;;;;12.73;6.15;;;;;;;;;;4948930;28;20425;-65
2022/03/29 09:04:21;;;;;;;14.68;6.32;;;;;;;;;;4951193;28;20429;-65
2022/03/29 09:06:50;;;;;;;;;;;;;;;;;;4950122;28;20097;-65
2022/03/29 09:09:44;;;;;;;13.65;6.20;;;;;;;;;;4949770;28;20222;-65
2022/03/29 09:12:12;;;;;;;14.98;6.63;;;;;;;;;;4949033;28;20461;-65
2022/03/29 09:15:09;;;;;;;13.07;6.18;;;;;;;;;;4949685;28;20030;-65
2022/03/29 09:17:40;;;;;;;14.93;6.45;;;;;;;;;;4937860;28;20375;-65
2022/03/29 09:20:20;;;;;;;13.07;6.53;;;;;;;;;;4949685;28;20026;-65
2022/03/29 09:22:55;;;;;;;15.02;6.38;;;;;;;;;;4949259;28;20026;-65
2022/03/29 09:25:24;;;;;;;13.35;6.10;;;;;;;;;;4951510;28;20376;-65
2022/03/29 09:27:56;;;;;;;;;;;;;;;;;;4950374;28;20319;-65
2022/03/29 09:30:23;;;;;;;16.05;6.47;;;;;;;;;;4949851;28;19917;-65
2022/03/29 09:33:01;;;;;;;12.00;6.00;;;;;;;;;;4949442;28;20527;-65
2022/03/29 09:35:27;;;;;;;13.30;5.97;;;;;;;;;;4949826;28;20338;-65
2022/03/29 09:37:53;;;;;;;14.05;6.60;;;;;;;;;;4948578;28;20448;-66
2022/03/29 09:40:19;;;;;;;12.60;5.53;;;;;;;;;;4949540;28;20609;-65
2022/03/29 09:43:05;;;;;;;11.43;6.28;;;;;;;;;;4947686;28;20115;-65
2022/03/29 09:45:38;;;;;;;11.70;5.63;;;;;;;;;;4949068;28;20431;-64
2022/03/29 09:48:23;;;;;;;14.35;5.88;;;;;;;;;;4951472;28;20433;-65
2022/03/29 09:50:52;;;;;;;14.20;5.93;;;;;;;;;;4949267;28;20708;-65
2022/03/29 09:53:37;;;;;;;;;;;;;;;;;;4949911;28;20033;-65
2022/03/29 09:56:03;;;;;;;14.65;5.93;;;;;;;;;;4951306;28;20360;-65
2022/03/29 09:58:28;;;;;;;10.98;5.63;;;;;;;;;;4955056;28;20488;-65
2022/03/29 10:00:55;;;;;;;9.32;4.43;;;;;;;;;;4953368;28;20483;-65
2022/03/29 10:03:26;;;;;;;17.95;6.22;;;;;;;;;;4951651;28;20449;-64
2022/03/29 10:05:53;;;;;;;11.40;5.38;;;;;;;;;;4953472;28;20483;-65
2022/03/29 10:11:10;;;;;;;9.20;4.65;;;;;;;;;;4952748;28;20415;-65
2022/03/29 10:13:36;;;;;;;12.95;5.70;;;;;;;;;;4952858;28;20176;-65
2022/03/29 10:16:02;;;;;;;11.80;5.03;;;;;;;;;;4952604;28;20449;-65
2022/03/29 10:18:28;;;;;;;10.90;6.13;;;;;;;;;;4952848;28;20373;-65
2022/03/29 10:20:54;;;;;;;11.18;5.63;;;;;;;;;;4952985;28;20357;-65
2022/03/29 10:23:23;;;;;;;11.50;4.95;;;;;;;;;;4952850;28;20034;-65
2022/03/29 10:25:51;;;;;;;13.45;5.60;;;;;;;;;;4952229;28;20335;-65
2022/03/29 10:28:16;;;;;;;12.32;4.72;;;;;;;;;;4953092;28;20500;-65
2022/03/29 10:30:43;;;;;;;9.82;5.00;;;;;;;;;;4953868;28;20552;-64
2022/03/29 10:33:29;;;;;;;12.30;5.43;;;;;;;;;;4952668;28;20034;-65
2022/03/29 10:36:12;;;;;;;10.73;5.30;;;;;;;;;;4952662;28;20425;-64
2022/03/29 10:38:46;;;;;;;7.55;4.15;;;;;;;;;;4953252;28;20421;-65
2022/03/29 10:41:27;;;;;;;8.85;4.60;;;;;;;;;;4953227;28;20496;-65
2022/03/29 10:43:53;;;;;;;9.02;4.35;;;;;;;;;;4953323;28;20449;-65
2022/03/29 10:46:42;;;;;;;9.55;4.80;;;;;;;;;;4952476;28;20396;-65
2022/03/29 10:49:17;;;;;;;9.77;4.60;;;;;;;;;;4952163;28;20481;-65
2022/03/29 10:51:42;;;;;;;8.02;4.80;;;;;;;;;;4952134;28;20034;-65
2022/03/29 10:54:38;;;;;;;9.95;4.80;;;;;;;;;;4950598;28;20095;-65
2022/03/29 10:57:06;;;;;;;9.07;4.45;;;;;;;;;;4951110;28;20467;-64
2022/03/29 10:59:33;;;;;;;11.70;4.80;;;;;;;;;;4952144;28;20176;-65
2022/03/29 11:02:20;;;;;;;13.30;5.05;;;;;;;;;;4952239;28;20332;-65
2022/03/29 11:05:04;;;;;;;9.20;4.43;;;;;;;;;;4952118;28;20378;-65
2022/03/29 11:07:30;;;;;;;10.07;4.90;;;;;;;;;;4952031;28;20030;-65
2022/03/29 11:10:19;;;;;;;8.85;4.60;;;;;;;;;;4952072;28;20400;-65
2022/03/29 11:12:52;;;;;;;16.38;5.93;;;;;;;;;;4952489;28;20475;-65
2022/03/29 11:15:24;;;;;;;8.85;4.22;;;;;;;;;;4950400;28;20544;-64
2022/03/29 11:17:53;;;;;;;9.10;4.43;;;;;;;;;;4952538;28;20374;-65
2022/03/29 11:20:29;;;;;;;9.45;4.53;;;;;;;;;;4951610;28;20496;-65
2022/03/29 11:22:57;;;;;;;10.15;4.30;;;;;;;;;;4951402;28;20416;-65
2022/03/29 11:25:23;;;;;;;6.73;3.47;;;;;;;;;;4950179;28;20467;-65
2022/03/29 11:27:48;;;;;;;8.82;4.10;;;;;;;;;;4951279;28;20433;-66
2022/03/29 11:30:14;;;;;;;6.63;3.95;;;;;;;;;;4951647;28;20430;-65
2022/03/29 11:32:41;;;;;;;9.15;4.38;;;;;;;;;;4951585;28;20306;-65
2022/03/29 11:35:07;;;;;;;9.82;4.78;;;;;;;;;;4951519;28;20450;-66
2022/03/29 11:37:40;;;;;;;8.95;4.20;;;;;;;;;;4951364;28;20524;-65
2022/03/29 11:40:07;;;;;;;7.40;3.72;;;;;;;;;;4951327;28;20437;-65
2022/03/29 11:42:44;;;;;;;8.70;4.28;;;;;;;;;;4951573;28;20334;-65
2022/03/29 11:45:09;;;;;;;11.75;4.13;;;;;;;;;;4951783;28;20437;-65
2022/03/29 11:47:37;;;;;;;6.72;3.70;;;;;;;;;;4950849;28;20299;-65
2022/03/29 11:50:02;;;;;;;7.05;3.42;;;;;;;;;;4952872;28;20022;-65
2022/03/29 11:52:36;;;;;;;6.03;3.42;;;;;;;;;;4953005;28;20100;-66
2022/03/29 11:55:14;;;;;;;11.10;3.85;;;;;;;;;;4950926;28;20345;-65
2022/03/29 11:57:39;;;;;;;8.90;4.28;;;;;;;;;;4951020;28;20341;-65
2022/03/29 12:00:23;;;;;;;8.32;3.53;;;;;;;;;;4951066;28;20330;-65
2022/03/29 12:02:48;;;;;;;8.10;4.13;;;;;;;;;;4951000;28;20095;-65
2022/03/29 12:05:27;;;;;;;7.30;4.03;;;;;;;;;;4951050;28;20456;-65
2022/03/29 12:07:57;;;;;;;7.82;4.00;;;;;;;;;;4951694;28;20112;-65
2022/03/29 12:10:27;;;;;;;7.50;3.70;;;;;;;;;;4950580;28;20434;-65
2022/03/29 12:12:53;;;;;;;6.40;3.25;;;;;;;;;;4950848;28;20438;-65
2022/03/29 12:15:20;;;;;;;8.18;3.60;;;;;;;;;;4950707;28;20426;-65
2022/03/29 12:20:41;;;;;;;7.15;3.83;;;;;;;;;;4951460;28;20648;-65
2022/03/29 12:23:27;;;;;;;8.25;3.47;;;;;;;;;;4950430;28;20464;-65
2022/03/29 12:25:53;;;;;;;10.68;3.90;;;;;;;;;;4950430;28;20472;-65
2022/03/29 12:28:19;;;;;;;6.95;3.70;;;;;;;;;;4950567;28;20478;-65
2022/03/29 12:30:45;;;;;;;7.43;4.05;;;;;;;;;;4950271;28;20091;-65
2022/03/29 12:33:11;;;;;;;9.27;4.40;;;;;;;;;;4950580;28;20961;-65
2022/03/29 12:35:36;;;;;;;10.48;4.43;;;;;;;;;;4951120;28;20353;-64
2022/03/29 12:38:06;;;;;;;8.52;3.90;;;;;;;;;;4950233;28;20468;-65
2022/03/29 12:40:32;;;;;;;10.38;4.32;;;;;;;;;;4950230;28;20034;-65
2022/03/29 12:43:07;;;;;;;9.13;4.00;;;;;;;;;;4949769;28;20441;-65
2022/03/29 12:45:33;;;;;;;12.00;4.53;;;;;;;;;;4949999;28;20030;-65
2022/03/29 12:48:01;;;;;;;9.02;3.90;;;;;;;;;;4950013;28;20030;-65
2022/03/29 12:50:27;;;;;;;9.77;4.30;;;;;;;;;;4950179;28;20165;-65
2022/03/29 12:52:52;;;;;;;8.45;4.20;;;;;;;;;;4950950;28;20353;-66
2022/03/29 12:55:20;;;;;;;9.90;4.25;;;;;;;;;;4948685;28;20464;-65
2022/03/29 12:57:46;;;;;;;9.35;3.45;;;;;;;;;;4949844;28;20116;-65
2022/03/29 13:00:14;;;;;;;8.77;3.70;;;;;;;;;;4949381;28;20385;-65
2022/03/29 13:02:43;;;;;;;6.88;2.97;;;;;;;;;;4950001;28;20464;-65
2022/03/29 13:05:09;;;;;;;9.77;3.47;;;;;;;;;;4950018;28;20449;-65
2022/03/29 13:07:48;;;;;;;8.50;4.20;;;;;;;;;;4949803;28;20369;-65
2022/03/29 13:10:26;;;;;;;6.63;3.33;;;;;;;;;;4949895;28;20361;-65
2022/03/29 13:12:56;;;;;;;7.60;3.88;;;;;;;;;;4949676;28;20341;-65
2022/03/29 13:15:45;;;;;;;6.13;3.30;;;;;;;;;;4950515;28;20026;-65
2022/03/29 13:18:31;;;;;;;4.30;2.70;;;;;;;;;;4950074;28;20376;-65
2022/03/29 13:21:22;;;;;;;5.50;2.92;;;;;;;;;;4949561;28;20317;-65
2022/03/29 13:24:14;;;;;;;9.60;3.40;;;;;;;;;;4949628;28;20539;-65
2022/03/29 13:26:41;;;;;;;8.00;3.05;;;;;;;;;;4949423;28;20460;-65
2022/03/29 13:29:11;;;;;;;8.55;3.78;;;;;;;;;;4951253;28;20523;-65
2022/03/29 13:31:39;;;;;;;8.48;3.55;;;;;;;;;;4949465;28;20353;-65
2022/03/29 13:34:07;;;;;;;6.38;3.10;;;;;;;;;;4949772;28;20034;-65
2022/03/29 13:36:33;;;;;;;6.93;3.40;;;;;;;;;;4950329;28;20424;-65
2022/03/29 13:39:00;;;;;;;8.23;4.05;;;;;;;;;;4949594;28;20029;-65
2022/03/29 13:41:26;;;;;;;6.00;3.08;;;;;;;;;;4950343;28;20338;-65
2022/03/29 13:43:52;;;;;;;8.68;3.58;;;;;;;;;;4948687;28;20480;-65
2022/03/29 13:46:19;;;;;;;7.00;3.00;;;;;;;;;;4949510;28;20421;-65
2022/03/29 13:48:45;;;;;;;5.60;3.08;;;;;;;;;;4948962;28;20385;-65
2022/03/29 13:51:12;;;;;;;5.18;3.00;;;;;;;;;;4949598;28;20333;-65
2022/03/29 13:53:39;;;;;;;6.68;3.15;;;;;;;;;;4949271;28;20367;-65
2022/03/29 13:56:05;;;;;;;6.93;3.25;;;;;;;;;;4950276;28;20503;-65
2022/03/29 13:58:31;;;;;;;4.57;2.67;;;;;;;;;;4948945;28;20508;-65
2022/03/29 14:00:57;;;;;;;8.00;3.30;;;;;;;;;;4949711;28;20437;-64
2022/03/29 14:03:23;;;;;;;7.47;3.13;;;;;;;;;;4950551;28;20330;-65
2022/03/29 14:05:48;;;;;;;6.93;3.22;;;;;;;;;;4950560;28;20358;-65
2022/03/29 14:08:14;;;;;;;6.20;2.95;;;;;;;;;;4949056;28;20477;-65
2022/03/29 14:10:40;;;;;;;7.28;3.17;;;;;;;;;;4950287;28;20341;-65
2022/03/29 14:13:07;;;;;;;5.95;2.55;;;;;;;;;;4949295;28;20457;-65
2022/03/29 14:15:35;;;;;;;5.25;2.58;;;;;;;;;;4949145;28;20476;-65
2022/03/29 14:18:07;;;;;;;7.13;3.13;;;;;;;;;;4949676;28;20421;-65
2022/03/29 14:20:33;;;;;;;4.95;2.83;;;;;;;;;;4948718;28;20365;-65
2022/03/29 14:22:59;;;;;;;5.50;2.90;;;;;;;;;;4950991;28;20487;-65
2022/03/29 14:25:26;;;;;;;6.40;3.42;;;;;;;;;;4948995;28;20412;-65
2022/03/29 14:27:52;;;;;;;9.52;4.07;;;;;;;;;;4949493;28;20325;-64
2022/03/29 14:30:18;;;;;;;8.93;3.20;;;;;;;;;;4948883;28;20307;-65
2022/03/29 14:32:43;;;;;;;7.75;3.55;;;;;;;;;;4948746;28;20507;-65
2022/03/29 14:35:09;;;;;;;9.50;4.00;;;;;;;;;;4948917;28;20421;-64
2022/03/29 14:37:36;;;;;;;4.88;3.13;;;;;;;;;;4949036;28;20318;-65
2022/03/29 14:40:03;;;;;;;7.32;3.88;;;;;;;;;;4949227;28;20512;-65
2022/03/29 14:42:28;;;;;;;5.80;2.97;;;;;;;;;;4951148;28;20461;-65
2022/03/29 14:44:54;;;;;;;6.93;3.67;;;;;;;;;;4952501;28;20519;-65
2022/03/29 14:47:23;;;;;;;7.75;2.60;;;;;;;;;;4952249;28;20396;-65
2022/03/29 14:49:49;;;;;;;7.85;3.70;;;;;;;;;;4952815;28;20504;-64